Portada
METAR-TAF:

METAR-TAF

Aeroports :

Najran, Aràbia Saudita

latitud: 17-37N, longitud: 044-25E, altitud: 1212 m

Observació

L'informe es va fer fa 57 minuts, a les 09:00 UTC
Vent 8 kt del Sud-Est
Temperatura 38°C
Humitat 7%
Pressió 1015 hPa
Visibilitat 10 km o més
sense núvols per sota de 1500 mi sense presència de cumulonimbus.

METAR: OENG 290900Z 14008KT CAVOK 38/M04 Q1015 NOSIG

Hora: 12:57 (09:57 UTC)

Pronòstic

L'informe es va fer fa 10 hores i 57 minuts, a les 23:00 UTC
Pronòstic vàlid del 29 a les 00 UTC al 30 a les 06 UTC
Vent 6 kt del Oest
Visibilitat: 7000 m
Evolucionant progressivament
l' 29 a les 08 UTC al 29 a les 10 UTC
Vent 13 kt del Est
Probabilitat 30% :
Temporalment
l' 29 a les 08 UTC al 29 a les 18 UTC
Visibilitat: 3000 m
torb alta de pols
Evolucionant progressivament
l' 29 a les 20 UTC al 29 a les 22 UTC
Vent 5 kt del Oest/Nord-Oest

TAF: OENG 282300Z 2900/3006 27006KT 7000 NSC BECMG 2908/2910 10013KT PROB30 TEMPO 2908/2918 3000 BLDU BECMG 2920/2922 29005KT

Observacions i pronòstics meteorològics de més de 4000 aeroports (METAR i TAF).

Les estacions disponibles són els punts grocs i vermells al mapa.

Posi el ratolí al punt desitjat per veure el nom de l'estació.

Feu clic per veure les observacions i els pronòstics meteorològics.

Per canviar el mapa: feu clic els botons verds amb una creu de color negre per apropar; al botó verd amb un guió per allunyar la imatge; o en les fletxes verdes per a mapes adjacents.


METAR-TAF: